< < Back
Terminal Aerodrome Forecast


Current Version              Previous Versions:   1  2  3  4  5  6  7  8  9  

Terminal Aerodrome Forecast

831
FTUS44 KBMX 251900 AAA
TAFMGM
TAF AMD
KMGM 251915Z 2519/2618 33008KT P6SM SKC
     FM260000 00000KT P6SM SKC
     FM261500 30006KT P6SM SKC=



Latest METAR

144
SAUS80 KWBC 260900
MTRMGM
METAR KMGM 260853Z AUTO 00000KT 7SM CLR 13/12 A3002 RMK AO2 SLP164
T01280117 56008


USA.gov is the U.S. government's official web portal to all federal, state and local government web resources and services.